Time;durP1;ratioP1;P1;durP2;ratioP2;P2;SDS_P1;SDS_P2;PMS_P1;PMS_P2;Temp;Humidity;BMP_temperature;BMP_pressure;BME280_temperature;BME280_humidity;BME280_pressure;Samples;Min_cycle;Max_cycle;Signal;HPM_P1;HPM_P2
2023/01/17 00:01:28;;;;;;;6.72;5.53;;;;;;;5.76;77.59;96154.66;4993435;28;20058;-80
2023/01/17 00:12:09;;;;;;;5.65;4.25;;;;;;;5.76;77.47;96170.31;5011089;28;20058;-80
2023/01/17 00:14:36;;;;;;;8.05;4.80;;;;;;;5.76;77.56;96170.31;5011106;28;20565;-80
2023/01/17 00:17:02;;;;;;;6.40;4.50;;;;;;;5.74;77.71;96173.06;5010691;28;20160;-79
2023/01/17 01:35:58;;;;;;;2.58;2.17;;;;;;;5.72;77.67;96263.72;5032968;28;20053;-79
2023/01/17 01:38:25;;;;;;;2.45;1.90;;;;;;;5.71;78.24;96263.84;5033051;28;20104;-80
2023/01/17 01:40:54;;;;;;;2.28;2.08;;;;;;;5.69;78.06;96263.19;5033035;28;20504;-80
2023/01/17 01:43:40;;;;;;;5.90;2.17;;;;;;;5.67;77.67;96265.09;5033034;28;20060;-80
2023/01/17 01:46:08;;;;;;;2.13;1.90;;;;;;;5.71;78.05;96275.13;5032937;28;20505;-80
2023/01/17 01:48:48;;;;;;;2.30;2.10;;;;;;;5.69;77.54;96278.84;5032899;28;20107;-79
2023/01/17 01:51:40;;;;;;;2.70;1.92;;;;;;;5.69;77.33;96278.84;5032944;28;20119;-79
2023/01/17 01:54:14;;;;;;;2.20;1.95;;;;;;;5.71;77.98;96280.34;5015408;28;20053;-80
2023/01/17 01:56:41;;;;;;;4.15;1.80;;;;;;;5.74;78.29;96292.28;5032818;28;20064;-80
2023/01/17 01:59:12;;;;;;;1.85;1.40;;;;;;;5.73;78.01;96291.44;5033013;28;20508;-80
2023/01/17 02:01:38;;;;;;;3.33;1.67;;;;;;;5.74;78.03;96282.69;5032715;28;20519;-79
2023/01/17 02:04:08;;;;;;;1.50;1.25;;;;;;;5.73;78.25;96288.03;5032837;28;20063;-79
2023/01/17 02:06:42;;;;;;;3.40;1.70;;;;;;;5.74;77.54;96297.50;5032200;28;20053;-79
2023/01/17 02:09:11;;;;;;;2.88;1.83;;;;;;;5.74;77.74;96302.72;5033092;28;20139;-79
2023/01/17 02:11:39;;;;;;;3.38;1.50;;;;;;;5.73;77.61;96301.88;5015136;28;20118;-80
2023/01/17 02:14:05;;;;;;;3.47;1.20;;;;;;;5.73;77.63;96301.09;5032677;28;20072;-79
2023/01/17 02:16:47;;;;;;;1.98;1.45;;;;;;;5.70;77.42;96302.19;5032530;28;20088;-79
2023/01/17 02:19:52;;;;;;;3.35;1.15;;;;;;;5.69;77.19;96310.16;5032996;28;20081;-79
2023/01/17 02:22:40;;;;;;;3.05;1.42;;;;;;;5.67;76.78;96322.50;5014941;28;20080;-80
2023/01/17 02:25:36;;;;;;;1.92;1.30;;;;;;;5.64;76.75;96328.84;5032157;28;20196;-79
2023/01/17 02:28:14;;;;;;;2.80;1.73;;;;;;;5.66;77.59;96331.31;5026992;28;20112;-79
2023/01/17 02:30:47;;;;;;;1.10;1.00;;;;;;;5.64;77.59;96346.31;5032213;28;20088;-79
2023/01/17 02:33:19;;;;;;;1.58;1.00;;;;;;;5.66;77.78;96349.56;5031708;28;20108;-79
2023/01/17 02:36:18;;;;;;;3.55;0.90;;;;;;;5.61;77.27;96347.41;5031848;28;20518;-80
2023/01/17 02:39:07;;;;;;;1.05;0.95;;;;;;;5.60;77.36;96361.41;5032040;28;20145;-79
2023/01/17 02:41:37;;;;;;;1.48;1.00;;;;;;;5.62;77.55;96359.47;5032056;28;20127;-80
2023/01/17 02:44:08;;;;;;;1.10;0.85;;;;;;;5.59;77.67;96357.97;5031891;28;20049;-80
2023/01/17 02:46:52;;;;;;;2.90;1.00;;;;;;;5.56;77.25;96373.91;5031714;28;20053;-79
2023/01/17 02:49:22;;;;;;;0.60;0.60;;;;;;;5.56;77.67;96379.13;5031957;28;20120;-79
2023/01/17 02:52:31;;;;;;;1.88;0.80;;;;;;;5.54;77.48;96388.06;5031748;28;20100;-79
2023/01/17 02:55:42;;;;;;;1.25;0.65;;;;;;;5.51;76.91;96406.59;4929571;29;20059;-79
2023/01/17 02:58:33;;;;;;;1.88;0.40;;;;;;;5.47;76.68;96409.47;4967264;28;20088;-79
2023/01/17 03:01:05;;;;;;;2.67;0.30;;;;;;;5.47;76.95;96421.69;5024222;28;20088;-80
2023/01/17 03:03:50;;;;;;;1.27;0.52;;;;;;;5.43;76.68;96425.56;5031611;28;20057;-80
2023/01/17 03:06:31;;;;;;;0.30;0.20;;;;;;;5.34;76.03;96420.19;5031153;28;20088;-80
2023/01/17 03:08:57;;;;;;;0.60;0.40;;;;;;;5.31;76.50;96428.28;5031133;28;20061;-80
2023/01/17 03:11:24;;;;;;;1.13;0.45;;;;;;;5.25;76.76;96434.06;5031307;28;20061;-80
2023/01/17 03:13:55;;;;;;;0.50;0.50;;;;;;;5.19;76.15;96442.41;5031189;28;20064;-80
2023/01/17 03:16:24;;;;;;;0.75;0.30;;;;;;;5.15;76.33;96443.63;5031021;28;20420;-80
2023/01/17 03:18:52;;;;;;;0.47;0.30;;;;;;;5.11;76.44;96437.03;5030966;28;20522;-80
2023/01/17 03:21:20;;;;;;;1.33;0.30;;;;;;;5.07;76.29;96457.34;5013762;28;20061;-80
2023/01/17 03:23:46;;;;;;;0.80;0.55;;;;;;;5.02;76.02;96456.94;5013452;28;20058;-80
2023/01/17 03:26:13;;;;;;;2.45;0.88;;;;;;;4.97;76.21;96456.53;5030993;28;20196;-80
2023/01/17 03:28:39;;;;;;;1.60;0.32;;;;;;;4.92;76.23;96468.19;5030858;28;20071;-80
2023/01/17 03:31:06;;;;;;;1.38;0.40;;;;;;;4.86;76.13;96462.69;5030957;28;20547;-80
2023/01/17 03:33:32;;;;;;;4.05;0.45;;;;;;;4.81;76.14;96474.31;5030868;28;20521;-80
2023/01/17 03:35:59;;;;;;;2.65;0.45;;;;;;;4.77;76.29;96482.53;5030697;28;20119;-81
2023/01/17 03:38:27;;;;;;;0.52;0.52;;;;;;;4.71;76.46;96485.69;5013024;28;20115;-80
2023/01/17 03:40:53;;;;;;;1.20;0.70;;;;;;;4.67;76.31;96505.94;5031011;28;20550;-80
2023/01/17 03:43:20;;;;;;;0.80;0.70;;;;;;;4.62;76.04;96508.13;5030770;28;20065;-81
2023/01/17 03:45:53;;;;;;;1.42;0.60;;;;;;;4.56;75.53;96514.66;5029684;28;20123;-80
2023/01/17 03:48:20;;;;;;;0.77;0.60;;;;;;;4.51;76.07;96511.63;5030343;28;20538;-80
2023/01/17 03:50:50;;;;;;;0.52;0.43;;;;;;;4.45;75.63;96514.75;5012984;28;20061;-80
2023/01/17 03:53:16;;;;;;;1.50;0.30;;;;;;;4.41;76.23;96530.66;5013187;28;20132;-80
2023/01/17 03:55:46;;;;;;;0.55;0.40;;;;;;;4.34;75.99;96531.28;5012904;28;20123;-80
2023/01/17 03:58:13;;;;;;;0.30;0.20;;;;;;;4.30;76.23;96531.53;5030262;28;20107;-80
2023/01/17 04:00:39;;;;;;;0.52;0.20;;;;;;;4.25;76.68;96541.53;5030449;28;20346;-80
2023/01/17 04:03:06;;;;;;;0.55;0.40;;;;;;;4.24;76.73;96539.03;5030452;28;20057;-80
2023/01/17 04:05:32;;;;;;;0.47;0.22;;;;;;;4.20;76.76;96542.84;5012585;28;20499;-80
2023/01/17 04:07:59;;;;;;;0.22;0.20;;;;;;;4.16;76.63;96552.69;5030324;28;20058;-80
2023/01/17 04:10:26;;;;;;;1.27;0.40;;;;;;;4.15;76.45;96553.66;5030593;28;20065;-80
2023/01/17 04:12:52;;;;;;;0.40;0.40;;;;;;;4.12;76.70;96556.50;5030303;28;20053;-80
2023/01/17 04:15:18;;;;;;;0.40;0.30;;;;;;;4.11;76.99;96554.88;5012685;28;20052;-80
2023/01/17 04:17:45;;;;;;;0.82;0.40;;;;;;;4.10;76.82;96566.22;5012393;28;20053;-80
2023/01/17 04:20:30;;;;;;;0.40;0.40;;;;;;;4.04;76.51;96577.97;5030411;28;20061;-80
2023/01/17 04:22:57;;;;;;;0.38;0.38;;;;;;;4.06;77.21;96570.00;5030402;28;20065;-80
2023/01/17 04:25:24;;;;;;;1.65;0.60;;;;;;;4.03;76.92;96577.13;5011590;28;20096;-80
2023/01/17 04:27:54;;;;;;;0.63;0.40;;;;;;;4.01;76.91;96584.22;5012268;28;20059;-80
2023/01/17 04:30:21;;;;;;;1.30;0.70;;;;;;;4.02;76.83;96588.50;5029769;28;20057;-80
2023/01/17 04:32:47;;;;;;;0.95;0.40;;;;;;;4.02;77.22;96598.06;5029601;28;20486;-80
2023/01/17 04:35:14;;;;;;;0.98;0.60;;;;;;;4.00;77.35;96593.00;5029844;28;20115;-80
2023/01/17 04:37:40;;;;;;;1.85;0.50;;;;;;;3.99;77.56;96593.94;5012198;28;20057;-81
2023/01/17 04:40:07;;;;;;;0.40;0.40;;;;;;;4.00;77.34;96590.38;5030014;28;20141;-80
2023/01/17 04:42:34;;;;;;;0.98;0.52;;;;;;;3.99;77.31;96601.75;5012424;28;20061;-80
2023/01/17 04:45:01;;;;;;;0.80;0.70;;;;;;;3.98;76.74;96605.31;5030075;28;20053;-80
2023/01/17 04:47:27;;;;;;;2.95;0.95;;;;;;;3.93;76.54;96615.28;5030016;28;20050;-80
2023/01/17 04:49:53;;;;;;;2.35;0.70;;;;;;;3.90;76.40;96616.31;5012405;28;20053;-81
2023/01/17 04:52:20;;;;;;;3.08;1.10;;;;;;;3.87;76.43;96615.75;5012488;28;20108;-80
2023/01/17 04:54:49;;;;;;;1.23;0.80;;;;;;;3.82;76.77;96621.34;5012325;28;20054;-80
2023/01/17 04:57:17;;;;;;;1.25;0.80;;;;;;;3.81;77.04;96624.06;5032256;28;20462;-80
2023/01/17 04:59:45;;;;;;;1.05;0.70;;;;;;;3.75;76.85;96621.00;5033761;28;20111;-80
2023/01/17 05:02:12;;;;;;;1.20;0.95;;;;;;;3.74;77.24;96627.13;5033987;28;20467;-80
2023/01/17 05:04:39;;;;;;;1.15;1.08;;;;;;;3.73;77.53;96633.28;5015916;28;20559;-80
2023/01/17 05:07:06;;;;;;;2.70;1.02;;;;;;;3.72;77.25;96631.66;5033522;28;20419;-80
2023/01/17 05:09:32;;;;;;;4.85;1.10;;;;;;;3.71;77.32;96643.00;5033471;28;20132;-80
2023/01/17 05:11:58;;;;;;;1.13;0.80;;;;;;;3.72;77.45;96646.44;5033569;28;20061;-80
2023/01/17 05:14:25;;;;;;;1.10;1.00;;;;;;;3.71;77.57;96648.22;5016065;28;20057;-80
2023/01/17 05:16:53;;;;;;;1.73;0.75;;;;;;;3.71;77.53;96643.00;5033444;28;20331;-80
2023/01/17 05:19:21;;;;;;;2.28;0.95;;;;;;;3.70;77.45;96646.53;5015900;28;20068;-80
2023/01/17 05:21:47;;;;;;;1.25;0.90;;;;;;;3.70;78.05;96654.34;5033530;28;20058;-80
2023/01/17 05:24:14;;;;;;;1.67;1.10;;;;;;;3.69;77.67;96657.91;5033336;28;20058;-80
2023/01/17 05:26:41;;;;;;;2.33;1.15;;;;;;;3.71;77.89;96663.00;5015389;28;20045;-80
2023/01/17 05:29:09;;;;;;;1.92;1.17;;;;;;;3.71;77.96;96660.38;5033431;28;20057;-80
2023/01/17 05:31:36;;;;;;;2.45;1.20;;;;;;;3.72;78.16;96670.69;5015706;28;20053;-80
2023/01/17 05:34:03;;;;;;;3.15;1.23;;;;;;;3.72;78.53;96683.69;5033332;28;20143;-80
2023/01/17 05:36:29;;;;;;;3.83;1.20;;;;;;;3.75;78.38;96686.06;5033340;28;20053;-80
2023/01/17 05:38:56;;;;;;;3.42;1.30;;;;;;;3.77;78.59;96696.31;5015362;28;20069;-80
2023/01/17 05:41:22;;;;;;;3.33;1.30;;;;;;;3.80;78.55;96701.28;5033374;28;20065;-80
2023/01/17 05:43:49;;;;;;;4.65;1.70;;;;;;;3.81;78.16;96695.13;5015313;28;20061;-80
2023/01/17 05:46:16;;;;;;;3.17;1.50;;;;;;;3.83;78.29;96698.44;5032889;28;20053;-80
2023/01/17 05:48:43;;;;;;;4.78;1.42;;;;;;;3.85;78.29;96701.75;5015492;28;20092;-81
2023/01/17 05:51:09;;;;;;;3.72;1.48;;;;;;;3.85;78.15;96709.53;5033014;28;20585;-80
2023/01/17 05:53:36;;;;;;;2.33;1.15;;;;;;;3.86;78.03;96705.19;5015075;28;20049;-80
2023/01/17 05:56:02;;;;;;;6.13;1.50;;;;;;;3.88;78.08;96716.28;5015134;28;20108;-80
2023/01/17 05:58:29;;;;;;;2.72;1.40;;;;;;;3.89;78.19;96715.34;5015042;28;20065;-80
2023/01/17 06:00:55;;;;;;;1.90;1.63;;;;;;;3.90;78.25;96727.41;5032585;28;20466;-80
2023/01/17 06:03:22;;;;;;;3.17;1.50;;;;;;;3.91;78.01;96723.84;5032882;28;20073;-80
2023/01/17 06:05:48;;;;;;;3.17;1.42;;;;;;;3.91;78.35;96722.09;5014645;28;20127;-80
2023/01/17 06:08:15;;;;;;;4.78;1.40;;;;;;;3.92;78.29;96720.28;5013802;28;20107;-81
2023/01/17 06:10:41;;;;;;;4.05;1.80;;;;;;;3.93;77.97;96726.34;5032673;28;20412;-80
2023/01/17 06:13:14;;;;;;;3.33;1.63;;;;;;;3.91;78.03;96726.47;5032584;28;20063;-80
2023/01/17 06:15:40;;;;;;;3.67;1.90;;;;;;;3.94;78.34;96736.63;5032318;28;20054;-80
2023/01/17 06:18:10;;;;;;;5.18;1.50;;;;;;;3.94;78.06;96736.63;5032124;28;20411;-81
2023/01/17 06:20:37;;;;;;;2.75;1.50;;;;;;;3.97;78.01;96743.38;5032299;28;20060;-80
2023/01/17 06:23:06;;;;;;;2.70;1.77;;;;;;;3.99;77.96;96741.47;5032473;28;20057;-80
2023/01/17 06:25:37;;;;;;;1.83;1.50;;;;;;;3.99;77.73;96749.25;5013579;28;20466;-80
2023/01/17 06:28:05;;;;;;;4.95;1.55;;;;;;;3.99;78.21;96750.09;5032196;28;20054;-80
2023/01/17 06:30:32;;;;;;;3.65;1.60;;;;;;;3.99;78.00;96759.69;5032030;28;20057;-80
2023/01/17 06:32:58;;;;;;;3.65;1.40;;;;;;;3.99;77.83;96755.31;5032135;28;20053;-80
2023/01/17 06:35:25;;;;;;;5.13;1.50;;;;;;;3.99;78.15;96770.09;5031950;28;20095;-80
2023/01/17 06:37:54;;;;;;;4.90;1.70;;;;;;;4.00;77.77;96771.75;5014322;28;20054;-80
2023/01/17 06:40:21;;;;;;;5.03;1.77;;;;;;;3.98;78.12;96777.09;5031618;28;20499;-80
2023/01/17 06:42:47;;;;;;;6.63;1.90;;;;;;;3.98;77.53;96779.69;5030420;28;20119;-80
2023/01/17 06:45:14;;;;;;;5.35;1.83;;;;;;;3.98;77.96;96791.88;5030137;28;20569;-80
2023/01/17 06:47:40;;;;;;;4.05;1.80;;;;;;;3.97;77.71;96780.63;5031291;28;20100;-80
2023/01/17 06:50:12;;;;;;;6.60;1.70;;;;;;;3.96;77.90;96785.97;5031835;28;20496;-80
2023/01/17 06:52:40;;;;;;;2.70;1.40;;;;;;;3.97;78.14;96788.44;5031848;28;20072;-80
2023/01/17 06:55:07;;;;;;;2.35;1.55;;;;;;;3.97;77.80;96778.03;5031746;28;20108;-80
2023/01/17 06:57:34;;;;;;;4.88;1.75;;;;;;;3.96;77.87;96786.78;5031884;28;20052;-80
2023/01/17 07:02:46;;;;;;;3.17;0.98;;;;;;;3.98;77.46;96789.25;5010438;28;20062;-80
2023/01/17 07:05:15;;;;;;;5.38;2.10;;;;;;;3.97;77.14;96793.66;5012210;28;20054;-79
2023/01/17 07:07:43;;;;;;;2.75;2.00;;;;;;;3.93;76.76;96792.25;5011926;28;20418;-78
2023/01/17 07:10:11;;;;;;;3.08;1.73;;;;;;;3.88;76.41;96789.13;5010660;28;20056;-78
2023/01/17 07:12:38;;;;;;;5.47;2.10;;;;;;;3.83;76.30;96797.31;5011917;28;20104;-79
2023/01/17 07:15:06;;;;;;;6.97;1.90;;;;;;;3.76;76.05;96799.56;5011762;28;20081;-78
2023/01/17 07:17:34;;;;;;;8.70;2.05;;;;;;;3.70;75.99;96800.03;5012044;28;20050;-79
2023/01/17 07:20:00;;;;;;;7.28;2.00;;;;;;;3.64;76.09;96803.94;5011799;28;20058;-78
2023/01/17 07:22:26;;;;;;;7.05;1.63;;;;;;;3.58;76.03;96812.19;5010650;28;20087;-79
2023/01/17 07:24:57;;;;;;;4.22;1.70;;;;;;;3.54;76.08;96815.97;5011841;28;20149;-78
2023/01/17 07:27:26;;;;;;;4.65;1.80;;;;;;;3.48;76.50;96814.66;5011451;28;20071;-77
2023/01/17 07:29:53;;;;;;;3.35;1.83;;;;;;;3.43;76.68;96829.78;5011490;28;20050;-78
2023/01/17 07:32:20;;;;;;;7.47;2.13;;;;;;;3.39;76.24;96820.56;5011926;28;20057;-78
2023/01/17 07:34:46;;;;;;;7.18;2.08;;;;;;;3.34;76.92;96827.88;5011624;28;20093;-78
2023/01/17 07:37:13;;;;;;;5.28;2.30;;;;;;;3.31;76.28;96828.94;5011457;28;20509;-78
2023/01/17 07:39:41;;;;;;;4.40;2.10;;;;;;;3.30;77.01;96836.84;5011513;28;20494;-79
2023/01/17 07:42:08;;;;;;;2.92;2.03;;;;;;;3.24;77.00;96844.19;5011387;28;20057;-79
2023/01/17 07:44:34;;;;;;;3.67;1.88;;;;;;;3.21;76.67;96844.41;5011767;28;20541;-79
2023/01/17 07:47:01;;;;;;;8.27;2.13;;;;;;;3.18;76.96;96839.41;5011199;28;20050;-79
2023/01/17 07:49:28;;;;;;;4.90;1.70;;;;;;;3.15;76.93;96839.66;5011225;28;20481;-79
2023/01/17 07:51:54;;;;;;;4.90;2.33;;;;;;;3.12;76.82;96840.72;5011280;28;20149;-79
2023/01/17 07:54:21;;;;;;;10.25;2.03;;;;;;;3.11;77.20;96843.44;5011390;28;20080;-79
2023/01/17 07:56:47;;;;;;;3.95;2.00;;;;;;;3.08;77.33;96839.28;5010894;28;20068;-77
2023/01/17 07:59:14;;;;;;;3.90;2.00;;;;;;;3.07;77.19;96850.59;5011610;28;20053;-78
2023/01/17 08:01:40;;;;;;;6.47;2.35;;;;;;;3.06;77.94;96851.56;5011276;28;20058;-79
2023/01/17 08:04:08;;;;;;;6.05;1.95;;;;;;;3.05;77.63;96857.69;5011047;28;20155;-79
2023/01/17 08:06:38;;;;;;;3.63;2.08;;;;;;;3.04;77.70;96853.44;5009691;28;20053;-78
2023/01/17 08:09:04;;;;;;;7.13;2.70;;;;;;;3.04;77.60;96855.19;5010870;28;20426;-78
2023/01/17 08:11:31;;;;;;;4.60;2.90;;;;;;;3.03;77.92;96854.38;5011174;28;20081;-78
2023/01/17 08:13:58;;;;;;;10.82;2.85;;;;;;;3.03;77.42;96848.34;5011160;28;20141;-78
2023/01/17 08:16:27;;;;;;;9.10;3.45;;;;;;;3.02;77.51;96857.91;5010889;28;20125;-78
2023/01/17 08:18:55;;;;;;;4.50;2.90;;;;;;;3.03;78.20;96856.16;5010840;28;20136;-78
2023/01/17 08:21:22;;;;;;;11.70;3.30;;;;;;;3.05;78.26;96859.44;5010981;28;20104;-78
2023/01/17 08:23:50;;;;;;;15.18;4.60;;;;;;;3.05;78.13;96862.06;5010862;28;20054;-78
2023/01/17 08:26:21;;;;;;;12.88;3.78;;;;;;;3.07;78.04;96867.97;5010579;28;20049;-78
2023/01/17 08:28:59;;;;;;;10.50;4.40;;;;;;;3.07;77.62;96867.97;5010803;28;20569;-77
2023/01/17 08:31:31;;;;;;;6.30;4.32;;;;;;;3.09;77.64;96866.09;5010617;28;20057;-79
2023/01/17 08:33:58;;;;;;;6.43;4.23;;;;;;;3.10;78.14;96873.78;5010768;28;20046;-78
2023/01/17 08:36:26;;;;;;;9.23;4.38;;;;;;;3.11;78.08;96872.00;5010758;28;20343;-78
2023/01/17 08:38:54;;;;;;;8.05;4.93;;;;;;;3.11;78.13;96872.00;4993411;28;20104;-78
2023/01/17 08:41:22;;;;;;;10.95;4.85;;;;;;;3.11;78.40;96869.41;5010886;28;20081;-80
2023/01/17 08:43:50;;;;;;;6.70;4.38;;;;;;;3.11;77.94;96872.00;5010635;28;20145;-79
2023/01/17 08:46:17;;;;;;;14.77;4.78;;;;;;;3.13;78.42;96878.75;5009519;28;20066;-78
2023/01/17 08:48:44;;;;;;;7.75;5.72;;;;;;;3.14;78.36;96876.97;5010491;28;20442;-77
2023/01/17 08:51:11;;;;;;;7.90;5.05;;;;;;;3.15;78.37;96876.06;5010611;28;20053;-78
2023/01/17 08:53:37;;;;;;;10.55;4.85;;;;;;;3.17;77.90;96883.75;5010818;28;20053;-79
2023/01/17 08:56:05;;;;;;;8.73;5.80;;;;;;;3.18;77.69;96888.00;5010596;28;20065;-79
2023/01/17 08:58:31;;;;;;;7.72;5.25;;;;;;;3.16;78.07;96888.09;5010752;28;20062;-79
2023/01/17 09:01:01;;;;;;;9.88;5.45;;;;;;;3.17;78.18;96894.94;4993175;28;20057;-78
2023/01/17 09:03:28;;;;;;;9.38;5.80;;;;;;;3.17;78.49;96894.13;5010503;28;20062;-78
2023/01/17 09:06:02;;;;;;;12.27;6.25;;;;;;;3.15;77.34;96896.84;5009099;28;20054;-78
2023/01/17 09:08:28;;;;;;;9.43;6.03;;;;;;;3.19;78.18;96898.28;5010424;28;20072;-78
2023/01/17 09:10:56;;;;;;;10.18;5.60;;;;;;;3.19;78.42;96894.84;5010656;28;20058;-79
2023/01/17 09:13:22;;;;;;;10.70;6.28;;;;;;;3.20;78.41;96899.94;5010370;28;20065;-78
2023/01/17 09:15:49;;;;;;;10.38;6.22;;;;;;;3.20;78.35;96905.13;5010353;28;20073;-77
2023/01/17 09:18:15;;;;;;;11.68;6.05;;;;;;;3.22;78.18;96905.84;5010212;28;20054;-78
2023/01/17 09:20:42;;;;;;;11.73;6.25;;;;;;;3.23;78.23;96912.72;5010587;28;20060;-78
2023/01/17 09:23:09;;;;;;;13.68;6.22;;;;;;;3.23;78.29;96904.91;5010607;28;20050;-78
2023/01/17 09:25:35;;;;;;;10.35;6.60;;;;;;;3.25;78.71;96902.19;5010329;28;20054;-78
2023/01/17 09:28:02;;;;;;;12.52;6.55;;;;;;;3.26;78.89;96912.47;5010182;28;20502;-78
2023/01/17 09:30:28;;;;;;;13.30;6.93;;;;;;;3.29;78.83;96910.59;5010250;28;20058;-78
2023/01/17 09:32:55;;;;;;;11.93;6.95;;;;;;;3.32;78.51;96916.41;5010728;28;20457;-78
2023/01/17 09:35:21;;;;;;;15.10;6.95;;;;;;;3.33;78.67;96912.84;5010249;28;20070;-78
2023/01/17 09:37:49;;;;;;;14.65;6.50;;;;;;;3.36;78.85;96912.63;5010307;28;20068;-78
2023/01/17 09:40:23;;;;;;;10.50;6.70;;;;;;;3.38;77.69;96915.13;5010337;28;20566;-78
2023/01/17 09:42:56;;;;;;;12.63;7.50;;;;;;;3.41;77.99;96916.66;5010289;28;20089;-78
2023/01/17 09:45:26;;;;;;;13.77;7.05;;;;;;;3.43;78.17;96918.22;5013465;28;20061;-78
2023/01/17 09:47:53;;;;;;;9.73;6.82;;;;;;;3.45;78.59;96925.91;5013699;28;20057;-78
2023/01/17 09:50:30;;;;;;;13.07;8.02;;;;;;;3.45;78.18;96924.13;5013452;28;20116;-78
2023/01/17 09:53:01;;;;;;;14.13;6.47;;;;;;;3.46;77.91;96931.00;5013476;28;20058;-77
2023/01/17 09:55:36;;;;;;;11.63;6.78;;;;;;;3.44;76.55;96937.25;5013409;28;20066;-78
2023/01/17 09:58:09;;;;;;;10.65;7.30;;;;;;;3.44;77.44;96932.84;5012764;28;20594;-78
2023/01/17 10:00:59;;;;;;;10.00;6.70;;;;;;;3.44;76.67;96937.25;5013179;28;20058;-78
2023/01/17 10:03:34;;;;;;;13.13;6.95;;;;;;;3.47;77.95;96931.81;5007993;28;20064;-78
2023/01/17 10:06:22;;;;;;;11.75;7.38;;;;;;;3.48;77.02;96929.09;5013035;28;20101;-78
2023/01/17 10:09:10;;;;;;;12.15;7.05;;;;;;;3.52;77.37;96934.91;5013189;28;20060;-78
2023/01/17 10:12:08;;;;;;;9.68;6.57;;;;;;;3.57;77.15;96937.16;5013122;28;20146;-78
2023/01/17 10:15:01;;;;;;;15.05;6.90;;;;;;;3.62;77.52;96940.25;5012978;28;20065;-78
2023/01/17 10:17:46;;;;;;;11.68;6.13;;;;;;;3.67;78.67;96939.91;5013144;28;20104;-78
2023/01/17 10:20:24;;;;;;;10.57;5.60;;;;;;;3.68;77.37;96938.97;5013229;28;20057;-78
2023/01/17 10:23:02;;;;;;;10.90;5.47;;;;;;;3.71;77.06;96942.19;5012738;28;20451;-78
2023/01/17 10:25:35;;;;;;;13.30;6.20;;;;;;;3.72;76.73;96954.25;5011606;28;20061;-78
2023/01/17 10:28:17;;;;;;;8.88;6.13;;;;;;;3.71;76.02;96944.78;5012676;28;20053;-78
2023/01/17 10:30:49;;;;;;;12.00;6.20;;;;;;;3.74;76.58;96941.13;5012796;28;20058;-78
2023/01/17 10:33:40;;;;;;;16.07;5.40;;;;;;;3.72;75.86;96940.41;5012744;28;20093;-78
2023/01/17 10:36:14;;;;;;;11.10;5.78;;;;;;;3.74;77.19;96936.72;5012514;28;20092;-79
2023/01/17 10:38:46;;;;;;;13.30;5.57;;;;;;;3.77;77.51;96940.88;5012632;28;20054;-78
2023/01/17 10:41:22;;;;;;;10.70;6.05;;;;;;;3.79;78.57;96944.22;5011720;28;20434;-78
2023/01/17 10:44:05;;;;;;;10.30;5.85;;;;;;;3.82;78.09;96941.38;5012582;28;20057;-78
2023/01/17 10:46:44;;;;;;;8.55;6.20;;;;;;;3.90;78.80;96943.41;5012402;28;20481;-78
2023/01/17 10:49:17;;;;;;;12.55;5.57;;;;;;;3.90;77.25;96944.22;5012308;28;20064;-79
2023/01/17 10:51:58;;;;;;;12.30;6.28;;;;;;;3.95;77.60;96949.09;5012486;28;20053;-79
2023/01/17 10:55:02;;;;;;;12.73;6.30;;;;;;;3.97;76.45;96943.75;5012235;28;20090;-77
2023/01/17 10:57:39;;;;;;;13.10;6.70;;;;;;;4.02;77.35;96949.44;5012233;28;20450;-78
2023/01/17 11:00:54;;;;;;;11.15;6.65;;;;;;;4.03;75.68;96943.28;5012165;28;20490;-78
2023/01/17 11:03:20;;;;;;;11.80;5.85;;;;;;;4.10;77.89;96944.50;5002764;28;20065;-77
2023/01/17 11:06:13;;;;;;;12.90;7.18;;;;;;;4.08;76.19;96942.97;5012056;28;20062;-78
2023/01/17 11:08:50;;;;;;;12.68;6.65;;;;;;;4.12;76.98;96941.78;5007253;28;20132;-78
2023/01/17 11:11:17;;;;;;;16.92;6.95;;;;;;;4.16;78.17;96940.59;5010951;28;20050;-79
2023/01/17 11:13:46;;;;;;;13.25;7.40;;;;;;;4.19;78.41;96936.94;5012107;28;20064;-78
2023/01/17 11:16:22;;;;;;;12.32;7.30;;;;;;;4.21;77.36;96943.69;4994461;28;20056;-78
2023/01/17 11:19:13;;;;;;;14.80;7.53;;;;;;;4.28;76.65;96944.88;5010357;28;20411;-78
2023/01/17 11:21:49;;;;;;;16.15;8.05;;;;;;;4.37;76.90;96947.72;5011963;28;20076;-78
2023/01/17 11:24:23;;;;;;;18.95;7.80;;;;;;;4.45;78.15;96949.72;5011927;28;20523;-78
2023/01/17 11:26:50;;;;;;;21.88;8.48;;;;;;;4.51;78.39;96951.84;5011493;28;20093;-78
2023/01/17 11:29:26;;;;;;;16.63;8.05;;;;;;;4.53;76.41;96961.19;5011684;28;20065;-78
2023/01/17 11:31:55;;;;;;;14.70;7.75;;;;;;;4.59;78.10;96954.69;5011856;28;20062;-78
2023/01/17 11:34:28;;;;;;;14.43;7.20;;;;;;;4.61;77.46;96951.97;5010321;28;20481;-78
2023/01/17 11:37:17;;;;;;;15.13;8.13;;;;;;;4.65;75.65;96955.97;5011232;28;20512;-78
2023/01/17 11:39:46;;;;;;;18.90;7.72;;;;;;;4.73;78.98;96948.41;5011563;28;20076;-78
2023/01/17 11:42:35;;;;;;;15.07;7.80;;;;;;;4.80;76.57;96948.75;5010592;28;20481;-78
2023/01/17 11:45:24;;;;;;;14.45;8.05;;;;;;;4.92;77.01;96941.72;5011238;28;20061;-78
2023/01/17 11:48:11;;;;;;;15.70;8.18;;;;;;;5.08;77.60;96950.00;5009905;28;20050;-78
2023/01/17 11:50:43;;;;;;;18.98;8.07;;;;;;;5.28;79.05;96941.50;5011436;28;20058;-78
2023/01/17 11:53:28;;;;;;;14.05;8.10;;;;;;;5.42;77.61;96936.00;5010986;28;20057;-76
2023/01/17 11:56:04;;;;;;;19.30;8.57;;;;;;;5.61;76.89;96947.56;5009836;28;20137;-78
2023/01/17 11:58:37;;;;;;;19.55;9.27;;;;;;;5.81;78.77;96943.28;5011096;28;20208;-79
2023/01/17 12:01:26;;;;;;;17.40;9.50;;;;;;;6.03;77.03;96953.72;5011359;28;20057;-78
2023/01/17 12:04:10;;;;;;;13.10;8.27;;;;;;;6.23;76.31;96941.63;5011187;28;20136;-78
2023/01/17 12:07:03;;;;;;;15.63;8.38;;;;;;;6.36;75.22;96949.25;5010145;28;20054;-79
2023/01/17 12:09:45;;;;;;;14.10;9.05;;;;;;;6.49;76.54;96942.03;4993483;28;20614;-79
2023/01/17 12:15:22;;;;;;;28.33;10.50;;;;;;;6.71;78.22;96939.34;5010890;28;20054;-78
2023/01/17 12:18:23;;;;;;;16.40;8.80;;;;;;;6.77;74.74;96936.19;5010925;28;20318;-78
2023/01/17 12:21:12;;;;;;;15.75;9.40;;;;;;;6.83;72.46;96943.50;5009985;28;20100;-78
2023/01/17 12:24:22;;;;;;;15.95;10.80;;;;;;;6.82;70.95;96935.78;5010800;28;20049;-77
2023/01/17 12:26:54;;;;;;;16.83;9.32;;;;;;;6.80;73.25;96930.69;5000902;28;20144;-76
2023/01/17 12:29:46;;;;;;;16.60;9.50;;;;;;;6.73;71.37;96933.00;5010866;28;20056;-78
2023/01/17 12:32:15;;;;;;;17.40;9.25;;;;;;;6.76;76.09;96934.53;4993426;28;20062;-79
2023/01/17 12:34:57;;;;;;;14.48;8.88;;;;;;;6.76;75.68;96940.59;5010811;28;20237;-78
2023/01/17 12:37:35;;;;;;;18.70;9.60;;;;;;;6.85;77.73;96930.28;5010823;28;20054;-78
2023/01/17 12:40:22;;;;;;;15.77;10.02;;;;;;;6.92;73.94;96939.28;5010794;28;20061;-79
2023/01/17 12:43:00;;;;;;;13.05;8.70;;;;;;;7.05;75.72;96939.00;5011157;28;20088;-79
2023/01/17 12:45:41;;;;;;;12.05;8.48;;;;;;;7.22;74.94;96939.31;5010589;28;20490;-79
2023/01/17 12:48:15;;;;;;;16.70;9.48;;;;;;;7.44;77.12;96940.81;5010675;28;20510;-78
2023/01/17 12:50:53;;;;;;;14.73;8.88;;;;;;;7.74;78.20;96938.19;5010533;28;20065;-79
2023/01/17 12:53:36;;;;;;;15.55;8.52;;;;;;;8.15;78.67;96945.84;5010557;28;20050;-78
2023/01/17 12:56:13;;;;;;;11.25;7.57;;;;;;;8.56;78.05;96935.94;5010450;28;20133;-78
2023/01/17 12:58:43;;;;;;;14.77;8.25;;;;;;;8.86;74.91;96948.91;5010711;28;20404;-79
2023/01/17 13:01:38;;;;;;;14.75;8.20;;;;;;;8.92;68.24;96943.06;5129507;22;20077;-79
2023/01/17 13:04:16;;;;;;;12.10;8.43;;;;;;;8.89;69.24;96945.97;5012724;28;20103;-79
2023/01/17 13:06:57;;;;;;;12.73;7.65;;;;;;;8.73;66.05;96939.59;5029492;28;20057;-79
2023/01/17 13:09:27;;;;;;;13.63;8.25;;;;;;;8.60;70.12;96945.16;5029339;28;20511;-79
2023/01/17 13:12:08;;;;;;;10.63;7.63;;;;;;;8.33;66.61;96948.53;5029604;28;20759;-80
2023/01/17 13:14:35;;;;;;;15.27;8.23;;;;;;;8.18;70.44;96950.78;5029857;28;20056;-79
2023/01/17 13:17:13;;;;;;;14.55;9.15;;;;;;;7.97;69.48;96956.22;5029749;28;20718;-80
2023/01/17 13:19:57;;;;;;;15.80;9.02;;;;;;;7.80;68.65;96956.78;5033480;28;20474;-79
2023/01/17 13:22:25;;;;;;;19.13;9.75;;;;;;;7.71;71.67;96956.81;5033643;28;20123;-79
2023/01/17 13:25:30;;;;;;;13.27;8.77;;;;;;;7.58;67.93;96959.72;5033352;28;20049;-79
2023/01/17 13:28:17;;;;;;;17.55;8.63;;;;;;;7.52;68.46;96961.91;5033339;28;20100;-79
2023/01/17 13:31:07;;;;;;;15.15;8.75;;;;;;;7.49;68.20;96956.13;5015716;28;20095;-79
2023/01/17 13:34:00;;;;;;;18.38;7.63;;;;;;;7.46;69.43;96952.00;5033216;28;20152;-79
2023/01/17 13:36:57;;;;;;;13.45;7.95;;;;;;;7.40;69.96;96957.78;5032890;28;20103;-79